createdAt,value
2023-02-14T00:00:06.000Z,6.13
2023-02-14T00:02:35.266Z,6.18
2023-02-14T00:05:01.989Z,6.10
2023-02-14T00:07:28.724Z,6.00
2023-02-14T00:09:55.431Z,6.03
2023-02-14T00:12:22.154Z,6.00
2023-02-14T00:15:07.917Z,6.35
2023-02-14T00:17:34.709Z,6.15
2023-02-14T00:20:01.417Z,5.75
2023-02-14T00:22:28.184Z,6.13
2023-02-14T00:24:54.920Z,6.15
2023-02-14T00:27:21.765Z,6.25
2023-02-14T00:29:48.691Z,6.10
2023-02-14T00:32:15.510Z,5.97
2023-02-14T00:34:42.422Z,6.00
2023-02-14T00:37:10.481Z,6.20
2023-02-14T00:39:37.245Z,6.10
2023-02-14T00:42:06.020Z,5.80
2023-02-14T00:44:32.876Z,6.18
2023-02-14T00:46:59.561Z,6.00
2023-02-14T00:49:26.318Z,6.22
2023-02-14T00:51:53.096Z,6.15
2023-02-14T00:54:19.837Z,5.95
2023-02-14T00:56:46.641Z,5.72
2023-02-14T00:59:13.434Z,6.07
2023-02-14T01:01:41.910Z,5.90
2023-02-14T01:04:09.727Z,5.75
2023-02-14T01:06:38.514Z,6.10
2023-02-14T01:09:05.625Z,5.88
2023-02-14T01:11:33.576Z,6.00
2023-02-14T01:14:00.477Z,5.82
2023-02-14T01:16:29.122Z,6.07
2023-02-14T01:19:00.117Z,6.05
2023-02-14T01:21:33.152Z,5.72
2023-02-14T01:24:03.593Z,5.93
2023-02-14T01:26:30.792Z,5.85
2023-02-14T01:29:01.367Z,5.60
2023-02-14T01:31:32.139Z,6.10
2023-02-14T01:33:59.488Z,6.10
2023-02-14T01:36:32.024Z,5.78
2023-02-14T01:39:02.349Z,5.85
2023-02-14T01:41:32.673Z,6.13
2023-02-14T01:44:00.825Z,5.70
2023-02-14T01:46:31.339Z,5.88
2023-02-14T01:49:13.607Z,5.93
2023-02-14T01:51:44.598Z,5.95
2023-02-14T01:54:12.472Z,5.60
2023-02-14T01:56:44.075Z,6.00
2023-02-14T01:59:18.292Z,5.63
2023-02-14T02:01:48.062Z,5.73
2023-02-14T02:04:23.450Z,5.93
2023-02-14T02:06:59.602Z,5.82
2023-02-14T02:09:39.180Z,6.17
2023-02-14T02:12:06.949Z,6.00
2023-02-14T02:14:34.457Z,6.13
2023-02-14T02:17:10.254Z,6.20
2023-02-14T02:19:58.283Z,5.47
2023-02-14T02:23:01.356Z,5.60
2023-02-14T02:25:38.579Z,5.90
2023-02-14T02:28:30.060Z,5.72
2023-02-14T02:31:34.510Z,5.68
2023-02-14T02:34:39.426Z,5.70
2023-02-14T02:37:08.952Z,6.30
2023-02-14T02:40:01.799Z,6.50
2023-02-14T02:43:02.481Z,6.07
2023-02-14T02:46:09.249Z,6.03
2023-02-14T02:48:42.615Z,6.22
2023-02-14T02:51:34.424Z,5.88
2023-02-14T02:54:13.960Z,6.27
2023-02-14T02:56:53.420Z,6.35
2023-02-14T02:59:39.233Z,5.90
2023-02-14T03:02:10.848Z,5.65
2023-02-14T03:04:53.678Z,6.07
2023-02-14T03:07:37.145Z,5.90
2023-02-14T03:10:05.676Z,5.78
2023-02-14T03:12:37.355Z,6.38
2023-02-14T03:15:29.843Z,5.82
2023-02-14T03:18:49.056Z,6.28
2023-02-14T03:21:28.651Z,5.93
2023-02-14T03:24:15.257Z,6.00
2023-02-14T03:26:54.353Z,5.97
2023-02-14T03:29:51.530Z,6.13
2023-02-14T03:32:43.468Z,5.88
2023-02-14T03:35:45.543Z,6.18
2023-02-14T03:38:31.851Z,5.93
2023-02-14T03:41:03.924Z,5.97
2023-02-14T03:43:39.217Z,6.45
2023-02-14T03:46:16.378Z,6.00
2023-02-14T03:48:45.122Z,6.15
2023-02-14T03:51:14.589Z,6.13
2023-02-14T03:53:46.245Z,6.23
2023-02-14T03:56:15.752Z,6.18
2023-02-14T03:58:50.194Z,6.28
2023-02-14T04:01:24.562Z,6.15
2023-02-14T04:03:54.500Z,6.10
2023-02-14T04:06:21.458Z,6.30
2023-02-14T04:08:48.245Z,6.07
2023-02-14T04:11:16.271Z,5.95
2023-02-14T04:13:43.189Z,6.25
2023-02-14T04:16:09.960Z,6.18
2023-02-14T04:18:55.159Z,5.70
2023-02-14T04:21:21.905Z,6.38
2023-02-14T04:23:48.682Z,6.45
2023-02-14T04:26:15.378Z,6.05
2023-02-14T04:28:42.109Z,5.97
2023-02-14T04:31:10.331Z,6.13
2023-02-14T04:33:39.217Z,6.30
2023-02-14T04:36:06.400Z,5.50
2023-02-14T04:38:33.224Z,6.68
2023-02-14T04:41:00.317Z,6.10
2023-02-14T04:43:27.305Z,5.88
2023-02-14T04:45:54.066Z,6.30
2023-02-14T04:48:20.727Z,6.47
2023-02-14T04:50:52.509Z,6.32
2023-02-14T04:53:19.450Z,6.03
2023-02-14T04:55:48.614Z,6.18
2023-02-14T04:58:15.490Z,6.22
2023-02-14T05:00:42.251Z,6.22
2023-02-14T05:03:09.013Z,6.22
2023-02-14T05:05:35.701Z,5.90
2023-02-14T05:08:02.530Z,5.93
2023-02-14T05:10:29.678Z,5.68
2023-02-14T05:12:56.586Z,6.28
2023-02-14T05:15:23.263Z,5.90
2023-02-14T05:17:50.037Z,6.17
2023-02-14T05:20:16.914Z,6.00
2023-02-14T05:22:43.593Z,5.75
2023-02-14T05:25:10.381Z,5.70
2023-02-14T05:27:37.224Z,6.63
2023-02-14T05:30:04.161Z,5.90
2023-02-14T05:32:30.965Z,6.07
2023-02-14T05:34:59.191Z,5.63
2023-02-14T05:37:26.936Z,5.97
2023-02-14T05:39:53.730Z,6.03
2023-02-14T05:42:20.457Z,6.22
2023-02-14T05:44:48.079Z,5.57
2023-02-14T05:47:15.094Z,5.65
2023-02-14T05:49:41.831Z,5.78
2023-02-14T05:52:08.611Z,6.20
2023-02-14T05:54:35.418Z,5.95
2023-02-14T05:57:02.162Z,6.18
2023-02-14T05:59:28.925Z,6.18
2023-02-14T06:01:55.674Z,5.60
2023-02-14T06:04:22.395Z,5.80
2023-02-14T06:06:49.167Z,5.65
2023-02-14T06:09:16.084Z,6.30
2023-02-14T06:11:42.855Z,6.40
2023-02-14T06:14:09.640Z,5.88
2023-02-14T06:16:36.565Z,5.85
2023-02-14T06:19:03.457Z,6.00
2023-02-14T06:21:30.179Z,5.97
2023-02-14T06:23:56.961Z,6.47
2023-02-14T06:26:27.731Z,6.07
2023-02-14T06:28:56.060Z,5.82
2023-02-14T06:31:23.262Z,6.15
2023-02-14T06:33:50.767Z,5.90
2023-02-14T06:36:17.540Z,6.25
2023-02-14T06:38:44.633Z,6.40
2023-02-14T06:41:11.744Z,6.38
2023-02-14T06:43:38.655Z,6.30
2023-02-14T06:46:05.777Z,6.10
2023-02-14T06:48:32.621Z,6.35
2023-02-14T06:50:59.736Z,6.50
2023-02-14T06:53:26.569Z,6.50
2023-02-14T06:55:53.466Z,6.40
2023-02-14T06:58:20.334Z,6.67
2023-02-14T07:00:47.501Z,6.10
2023-02-14T07:03:14.632Z,6.38
2023-02-14T07:05:41.576Z,6.50
2023-02-14T07:08:08.388Z,6.50
2023-02-14T07:10:35.256Z,6.25
2023-02-14T07:13:02.123Z,6.38
2023-02-14T07:15:29.408Z,5.90
2023-02-14T07:17:56.299Z,6.13
2023-02-14T07:20:23.312Z,6.43
2023-02-14T07:22:50.084Z,5.93
2023-02-14T07:25:17.026Z,6.50
2023-02-14T07:27:44.291Z,6.20
2023-02-14T07:30:11.619Z,6.47
2023-02-14T07:32:39.504Z,6.10
2023-02-14T07:35:06.740Z,5.95
2023-02-14T07:37:34.386Z,6.38
2023-02-14T07:40:01.566Z,6.47
2023-02-14T07:42:28.530Z,6.70
2023-02-14T07:44:55.317Z,6.57
2023-02-14T07:47:21.997Z,6.53
2023-02-14T07:49:48.861Z,6.97
2023-02-14T07:52:15.759Z,6.43
2023-02-14T07:54:42.712Z,6.82
2023-02-14T07:57:09.489Z,6.70
2023-02-14T07:59:36.310Z,6.55
2023-02-14T08:02:03.510Z,6.43
2023-02-14T08:04:32.786Z,6.60
2023-02-14T08:07:00.297Z,6.95
2023-02-14T08:09:27.042Z,6.88
2023-02-14T08:12:14.799Z,7.50
2023-02-14T08:14:42.716Z,6.80
2023-02-14T08:17:10.083Z,6.57
2023-02-14T08:19:37.362Z,7.20
2023-02-14T08:22:04.856Z,7.27
2023-02-14T08:24:32.370Z,7.17
2023-02-14T08:26:59.975Z,6.70
2023-02-14T08:29:26.742Z,6.90
2023-02-14T08:31:53.626Z,7.30
2023-02-14T08:34:20.544Z,7.40
2023-02-14T08:36:47.482Z,7.15
2023-02-14T08:39:14.316Z,7.03
2023-02-14T08:41:41.096Z,7.72
2023-02-14T08:44:08.059Z,7.40
2023-02-14T08:46:34.962Z,7.53
2023-02-14T08:49:01.948Z,7.40
2023-02-14T08:51:28.871Z,7.60
2023-02-14T08:53:56.119Z,7.10
2023-02-14T08:56:23.631Z,7.63
2023-02-14T08:58:54.686Z,7.50
2023-02-14T09:01:21.869Z,7.18
2023-02-14T09:03:48.747Z,7.30
2023-02-14T09:06:17.272Z,6.53
2023-02-14T09:08:45.274Z,7.13
2023-02-14T09:11:15.264Z,6.93
2023-02-14T09:13:42.957Z,6.95
2023-02-14T09:16:11.425Z,7.55
2023-02-14T09:18:38.484Z,7.68
2023-02-14T09:21:15.107Z,7.10
2023-02-14T09:23:41.912Z,8.05
2023-02-14T09:26:11.786Z,7.70
2023-02-14T09:28:39.155Z,8.20
2023-02-14T09:31:13.334Z,7.65
2023-02-14T09:33:40.752Z,7.60
2023-02-14T09:36:26.693Z,7.13
2023-02-14T09:38:53.511Z,7.32
2023-02-14T09:41:29.318Z,8.20
2023-02-14T09:44:00.042Z,7.43
2023-02-14T09:46:29.463Z,6.88
2023-02-14T09:48:57.629Z,7.53
2023-02-14T09:51:28.750Z,8.00
2023-02-14T09:54:03.864Z,7.55
2023-02-14T09:56:33.572Z,7.57
2023-02-14T09:59:15.637Z,7.53
2023-02-14T10:01:46.582Z,7.87
2023-02-14T10:04:27.960Z,7.57
2023-02-14T10:07:12.054Z,7.22
2023-02-14T10:10:02.799Z,7.35
2023-02-14T10:12:31.808Z,7.85
2023-02-14T10:15:01.493Z,8.00
2023-02-14T10:17:40.823Z,7.75
2023-02-14T10:20:30.070Z,8.23
2023-02-14T10:23:11.762Z,8.32
2023-02-14T10:25:48.690Z,7.68
2023-02-14T10:28:17.625Z,8.53
2023-02-14T10:31:05.497Z,8.15
2023-02-14T10:33:36.633Z,8.63
2023-02-14T10:36:19.079Z,8.60
2023-02-14T10:39:04.445Z,8.57
2023-02-14T10:41:40.145Z,9.30
2023-02-14T10:44:25.397Z,8.67
2023-02-14T10:47:01.168Z,8.40
2023-02-14T10:49:57.977Z,8.15
2023-02-14T10:52:33.733Z,8.68
2023-02-14T10:55:12.460Z,8.40
2023-02-14T10:57:48.908Z,8.60
2023-02-14T11:00:38.212Z,8.50
2023-02-14T11:03:09.454Z,8.20
2023-02-14T11:05:46.202Z,8.67
2023-02-14T11:08:14.421Z,8.68
2023-02-14T11:10:41.382Z,8.63
2023-02-14T11:13:26.923Z,8.73
2023-02-14T11:15:54.093Z,8.85
2023-02-14T11:18:23.777Z,8.80
2023-02-14T11:21:10.123Z,7.90
2023-02-14T11:23:38.494Z,8.73
2023-02-14T11:26:11.644Z,8.60
2023-02-14T11:28:49.153Z,8.60
2023-02-14T11:31:25.675Z,8.70
2023-02-14T11:33:54.256Z,8.73
2023-02-14T11:36:21.544Z,8.10
2023-02-14T11:38:58.837Z,8.68
2023-02-14T11:41:26.149Z,8.55
2023-02-14T11:44:09.245Z,8.50
2023-02-14T11:46:47.617Z,8.55
2023-02-14T11:49:33.269Z,8.60
2023-02-14T11:52:10.285Z,8.40
2023-02-14T11:54:40.043Z,8.30
2023-02-14T11:57:27.644Z,8.68
2023-02-14T11:59:59.852Z,8.60
2023-02-14T12:02:37.934Z,8.30
2023-02-14T12:05:16.359Z,8.07
2023-02-14T12:07:45.776Z,8.05
2023-02-14T12:10:15.636Z,8.15
2023-02-14T12:12:56.057Z,8.00
2023-02-14T12:15:27.701Z,8.98
2023-02-14T12:18:38.865Z,8.48
2023-02-14T12:21:24.736Z,8.38
2023-02-14T12:23:59.848Z,8.70
2023-02-14T12:26:40.849Z,8.57
2023-02-14T12:29:20.007Z,8.88
2023-02-14T12:31:48.069Z,8.60
2023-02-14T12:34:17.465Z,8.57
2023-02-14T12:36:53.317Z,9.02
2023-02-14T12:39:35.549Z,9.00
2023-02-14T12:42:23.697Z,8.73
2023-02-14T12:45:11.754Z,9.00
2023-02-14T12:48:05.745Z,9.32
2023-02-14T12:50:35.416Z,8.85
2023-02-14T12:53:04.992Z,9.20
2023-02-14T12:55:56.225Z,9.30
2023-02-14T12:58:26.549Z,9.10
2023-02-14T13:01:06.380Z,9.20
2023-02-14T13:03:54.439Z,9.60
2023-02-14T13:06:27.918Z,8.63
2023-02-14T13:09:09.956Z,9.50
2023-02-14T13:11:53.003Z,9.50
2023-02-14T13:14:41.803Z,9.38
2023-02-14T13:17:36.769Z,9.68
2023-02-14T13:20:06.008Z,9.60
2023-02-14T13:22:35.618Z,10.30
2023-02-14T13:25:18.115Z,10.10
2023-02-14T13:27:45.091Z,10.40
2023-02-14T13:30:24.897Z,10.93
2023-02-14T13:32:54.937Z,10.60
2023-02-14T13:35:23.851Z,10.30
2023-02-14T13:37:58.551Z,11.15
2023-02-14T13:40:28.174Z,10.82
2023-02-14T13:43:00.419Z,10.70
2023-02-14T13:45:34.829Z,10.85
2023-02-14T13:48:10.232Z,11.00
2023-02-14T13:50:41.350Z,10.48
2023-02-14T13:53:12.939Z,10.48
2023-02-14T13:55:45.422Z,10.65
2023-02-14T13:58:19.162Z,10.90
2023-02-14T14:00:51.337Z,10.55
2023-02-14T14:03:30.444Z,10.70
2023-02-14T14:06:15.376Z,10.80
2023-02-14T14:08:52.084Z,10.85
2023-02-14T14:11:21.921Z,10.87
2023-02-14T14:14:03.045Z,11.00
2023-02-14T14:16:33.704Z,10.60
2023-02-14T14:19:05.059Z,10.73
2023-02-14T14:21:44.519Z,10.95
2023-02-14T14:24:32.963Z,10.90
2023-02-14T14:27:15.865Z,10.68
2023-02-14T14:29:49.723Z,10.23
2023-02-14T14:32:21.507Z,10.43
2023-02-14T14:34:50.737Z,10.70
2023-02-14T14:37:20.257Z,10.35
2023-02-14T14:39:55.768Z,10.40
2023-02-14T14:42:25.837Z,10.70
2023-02-14T14:44:59.221Z,10.63
2023-02-14T14:47:29.391Z,10.90
2023-02-14T14:50:06.121Z,10.67
2023-02-14T14:52:37.402Z,10.57
2023-02-14T14:55:09.137Z,11.10
2023-02-14T14:57:40.176Z,10.95
2023-02-14T15:00:32.196Z,11.90
2023-02-14T15:03:11.408Z,11.73
2023-02-14T15:05:39.679Z,11.07
2023-02-14T15:08:24.928Z,11.63
2023-02-14T15:11:10.859Z,11.37
2023-02-14T15:13:57.274Z,11.20
2023-02-14T15:16:40.624Z,11.27
2023-02-14T15:19:11.339Z,11.05
2023-02-14T15:21:43.525Z,11.38
2023-02-14T15:24:15.860Z,10.85
2023-02-14T15:26:44.951Z,11.73
2023-02-14T15:29:21.658Z,11.38
2023-02-14T15:31:49.454Z,11.53
2023-02-14T15:34:18.386Z,11.40
2023-02-14T15:36:52.094Z,11.50
2023-02-14T15:39:22.084Z,11.02
2023-02-14T15:41:48.791Z,10.82
2023-02-14T15:44:20.841Z,11.53
2023-02-14T15:46:48.478Z,11.00
2023-02-14T15:49:22.821Z,11.38
2023-02-14T15:51:50.879Z,11.10
2023-02-14T15:54:41.278Z,11.25
2023-02-14T15:57:27.053Z,10.73
2023-02-14T15:59:54.086Z,10.88
2023-02-14T16:02:38.067Z,11.40
2023-02-14T16:05:25.124Z,10.70
2023-02-14T16:08:24.117Z,10.88
2023-02-14T16:11:03.267Z,11.00
2023-02-14T16:13:33.513Z,11.38
2023-02-14T16:16:09.249Z,11.13
2023-02-14T16:18:45.216Z,11.45
2023-02-14T16:21:27.635Z,10.82
2023-02-14T16:24:10.630Z,10.57
2023-02-14T16:26:40.062Z,10.38
2023-02-14T16:29:09.028Z,10.40
2023-02-14T16:31:43.073Z,10.20
2023-02-14T16:34:15.793Z,10.27
2023-02-14T16:36:43.104Z,10.60
2023-02-14T16:39:18.361Z,10.47
2023-02-14T16:41:47.183Z,11.18
2023-02-14T16:44:15.346Z,10.50
2023-02-14T16:46:43.235Z,10.90
2023-02-14T16:49:10.029Z,11.05
2023-02-14T16:51:37.302Z,11.02
2023-02-14T16:54:07.505Z,9.95
2023-02-14T16:56:54.713Z,10.60
2023-02-14T16:59:21.648Z,10.38
2023-02-14T17:01:48.769Z,10.10
2023-02-14T17:04:15.837Z,10.25
2023-02-14T17:06:48.080Z,10.20
2023-02-14T17:09:19.879Z,9.77
2023-02-14T17:11:50.548Z,9.95
2023-02-14T17:14:21.939Z,10.00
2023-02-14T17:16:49.249Z,10.10
2023-02-14T17:19:16.514Z,10.65
2023-02-14T17:21:43.732Z,10.10
2023-02-14T17:24:10.646Z,9.93
2023-02-14T17:26:38.039Z,10.15
2023-02-14T17:29:06.810Z,9.88
2023-02-14T17:31:34.892Z,10.17
2023-02-14T17:34:01.805Z,10.60
2023-02-14T17:36:30.275Z,10.13
2023-02-14T17:38:57.031Z,10.50
2023-02-14T17:41:26.413Z,10.48
2023-02-14T17:44:00.180Z,10.15
2023-02-14T17:46:31.768Z,10.77
2023-02-14T17:48:59.121Z,10.68
2023-02-14T17:51:25.921Z,10.63
2023-02-14T17:53:52.778Z,10.57
2023-02-14T17:56:22.224Z,10.70
2023-02-14T17:58:51.291Z,10.85
2023-02-14T18:01:20.732Z,10.88
2023-02-14T18:03:47.700Z,11.38
2023-02-14T18:06:15.079Z,11.48
2023-02-14T18:08:46.506Z,11.43
2023-02-14T18:11:14.064Z,11.82
2023-02-14T18:13:41.199Z,10.23
2023-02-14T18:16:10.993Z,10.80
2023-02-14T18:18:38.060Z,10.70
2023-02-14T18:21:07.109Z,11.13
2023-02-14T18:23:33.910Z,10.93
2023-02-14T18:26:04.572Z,10.40
2023-02-14T18:28:32.637Z,11.13
2023-02-14T18:31:07.737Z,10.40
2023-02-14T18:33:35.552Z,10.73
2023-02-14T18:36:07.745Z,10.50
2023-02-14T18:38:35.186Z,10.45
2023-02-14T18:41:15.910Z,10.50
2023-02-14T18:43:43.588Z,9.73
2023-02-14T18:46:12.987Z,10.73
2023-02-14T18:48:40.161Z,10.20
2023-02-14T18:51:13.088Z,10.48
2023-02-14T18:53:41.034Z,10.15
2023-02-14T18:56:10.521Z,10.23
2023-02-14T18:58:37.814Z,10.25
2023-02-14T19:01:12.700Z,9.90
2023-02-14T19:03:41.246Z,9.57
2023-02-14T19:06:09.661Z,10.07
2023-02-14T19:08:38.541Z,10.00
2023-02-14T19:11:11.596Z,10.10
2023-02-14T19:13:38.562Z,10.23
2023-02-14T19:16:18.946Z,10.10
2023-02-14T19:18:46.493Z,9.90
2023-02-14T19:21:16.434Z,9.95
2023-02-14T19:23:43.545Z,10.15
2023-02-14T19:26:12.509Z,10.02
2023-02-14T19:28:39.839Z,9.93
2023-02-14T19:31:07.505Z,10.20
2023-02-14T19:33:45.712Z,10.37
2023-02-14T19:36:15.437Z,10.85
2023-02-14T19:38:44.405Z,10.05
2023-02-14T19:41:31.828Z,10.30
2023-02-14T19:43:59.476Z,10.60
2023-02-14T19:46:27.736Z,10.50
2023-02-14T19:48:59.304Z,10.10
2023-02-14T19:51:29.185Z,10.37
2023-02-14T19:53:57.633Z,10.40
2023-02-14T19:56:26.812Z,10.32
2023-02-14T19:58:54.275Z,10.60
2023-02-14T20:01:36.234Z,10.88
2023-02-14T20:04:04.617Z,10.30
2023-02-14T20:06:31.436Z,10.65
2023-02-14T20:08:58.334Z,10.85
2023-02-14T20:11:38.840Z,10.80
2023-02-14T20:14:06.533Z,10.77
2023-02-14T20:16:34.961Z,10.50
2023-02-14T20:19:03.605Z,10.63
2023-02-14T20:21:30.526Z,11.05
2023-02-14T20:24:02.050Z,11.02
2023-02-14T20:26:30.704Z,11.60
2023-02-14T20:29:03.930Z,10.73
2023-02-14T20:31:32.785Z,11.25
2023-02-14T20:34:00.128Z,10.82
2023-02-14T20:36:27.100Z,11.20
2023-02-14T20:38:55.534Z,11.82
2023-02-14T20:41:22.873Z,11.02
2023-02-14T20:43:49.679Z,10.95
2023-02-14T20:46:16.512Z,11.70
2023-02-14T20:48:43.270Z,12.13
2023-02-14T20:51:16.041Z,12.20
2023-02-14T20:53:44.843Z,12.23
2023-02-14T20:56:13.540Z,12.02
2023-02-14T20:58:41.244Z,12.07
2023-02-14T21:01:14.194Z,11.65
2023-02-14T21:03:50.639Z,12.23
2023-02-14T21:06:19.351Z,11.80
2023-02-14T21:08:46.862Z,11.88
2023-02-14T21:11:15.800Z,11.35
2023-02-14T21:13:42.621Z,11.70
2023-02-14T21:16:14.563Z,11.32
2023-02-14T21:18:48.453Z,11.53
2023-02-14T21:21:18.097Z,11.02
2023-02-14T21:23:44.859Z,12.15
2023-02-14T21:26:11.547Z,11.30
2023-02-14T21:28:38.293Z,11.73
2023-02-14T21:31:07.033Z,11.48
2023-02-14T21:33:34.612Z,10.97
2023-02-14T21:36:12.183Z,11.15
2023-02-14T21:38:39.073Z,11.38
2023-02-14T21:41:11.083Z,11.32
2023-02-14T21:43:40.225Z,10.85
2023-02-14T21:46:09.364Z,11.00
2023-02-14T21:48:55.221Z,10.73
2023-02-14T21:51:22.313Z,11.00
2023-02-14T21:53:49.880Z,10.93
2023-02-14T21:56:20.064Z,10.13
2023-02-14T21:58:49.025Z,10.20
2023-02-14T22:01:18.724Z,10.50
2023-02-14T22:03:45.796Z,10.23
2023-02-14T22:06:15.873Z,10.20
2023-02-14T22:08:43.071Z,10.45
2023-02-14T22:11:12.471Z,9.68
2023-02-14T22:13:39.476Z,9.38
2023-02-14T22:16:13.738Z,10.00
2023-02-14T22:18:41.274Z,10.43
2023-02-14T22:21:11.463Z,9.90
2023-02-14T22:23:38.817Z,9.55
2023-02-14T22:26:24.192Z,9.90
2023-02-14T22:28:53.770Z,9.50
2023-02-14T22:31:20.828Z,9.30
2023-02-14T22:33:49.276Z,9.02
2023-02-14T22:36:16.556Z,9.35
2023-02-14T22:38:43.644Z,9.68
2023-02-14T22:41:19.073Z,9.90
2023-02-14T22:43:46.216Z,9.80
2023-02-14T22:46:16.904Z,9.52
2023-02-14T22:48:44.065Z,9.95
2023-02-14T22:51:27.681Z,9.52
2023-02-14T22:53:57.322Z,9.70
2023-02-14T22:56:35.830Z,9.60
2023-02-14T22:59:05.719Z,9.45
2023-02-14T23:01:33.746Z,9.65
2023-02-14T23:04:02.882Z,9.80
2023-02-14T23:06:31.620Z,9.50
2023-02-14T23:08:58.381Z,9.10
2023-02-14T23:11:28.474Z,9.73
2023-02-14T23:14:14.558Z,9.57
2023-02-14T23:17:00.463Z,9.85
2023-02-14T23:19:48.943Z,9.85
2023-02-14T23:22:19.416Z,10.00
2023-02-14T23:24:47.422Z,9.93
2023-02-14T23:27:15.056Z,9.88
2023-02-14T23:29:41.781Z,9.65
2023-02-14T23:32:08.859Z,9.90
2023-02-14T23:34:38.084Z,10.00
2023-02-14T23:37:05.586Z,9.85
2023-02-14T23:39:35.594Z,10.48
2023-02-14T23:42:06.676Z,9.98
2023-02-14T23:44:34.409Z,10.07
2023-02-14T23:47:04.208Z,10.27
2023-02-14T23:49:32.609Z,10.17
2023-02-14T23:51:59.913Z,10.30
2023-02-14T23:54:26.814Z,9.63
2023-02-14T23:56:54.123Z,9.80
2023-02-14T23:59:21.892Z,10.38
